sensor_id;sensor_type;location;lat;lon;timestamp;P1;durP1;ratioP1;P2;durP2;ratioP2
49217;SDS011;35045;51.194;7.268;2023-11-21T00:01:57;15.68;;;10.18;;
49217;SDS011;35045;51.194;7.268;2023-11-21T00:04:24;14.60;;;10.18;;
49217;SDS011;35045;51.194;7.268;2023-11-21T00:06:50;17.25;;;10.45;;
49217;SDS011;35045;51.194;7.268;2023-11-21T00:09:17;12.80;;;9.00;;
49217;SDS011;35045;51.194;7.268;2023-11-21T00:11:45;14.38;;;10.35;;
49217;SDS011;35045;51.194;7.268;2023-11-21T00:14:12;16.35;;;10.35;;
49217;SDS011;35045;51.194;7.268;2023-11-21T00:16:38;15.23;;;10.40;;
49217;SDS011;35045;51.194;7.268;2023-11-21T00:19:05;15.60;;;9.80;;
49217;SDS011;35045;51.194;7.268;2023-11-21T00:21:31;17.52;;;10.77;;
49217;SDS011;35045;51.194;7.268;2023-11-21T00:23:57;15.15;;;9.63;;
49217;SDS011;35045;51.194;7.268;2023-11-21T00:26:24;21.00;;;9.75;;
49217;SDS011;35045;51.194;7.268;2023-11-21T00:28:50;15.77;;;9.93;;
49217;SDS011;35045;51.194;7.268;2023-11-21T00:31:16;15.10;;;9.82;;
49217;SDS011;35045;51.194;7.268;2023-11-21T00:33:42;15.88;;;9.68;;
49217;SDS011;35045;51.194;7.268;2023-11-21T00:36:09;16.73;;;11.07;;
49217;SDS011;35045;51.194;7.268;2023-11-21T00:38:36;17.20;;;11.70;;
49217;SDS011;35045;51.194;7.268;2023-11-21T00:41:03;17.58;;;12.70;;
49217;SDS011;35045;51.194;7.268;2023-11-21T00:43:29;16.38;;;10.60;;
49217;SDS011;35045;51.194;7.268;2023-11-21T00:45:56;17.05;;;11.20;;
49217;SDS011;35045;51.194;7.268;2023-11-21T00:48:22;20.45;;;13.35;;
49217;SDS011;35045;51.194;7.268;2023-11-21T00:50:48;20.77;;;12.82;;
49217;SDS011;35045;51.194;7.268;2023-11-21T00:53:15;21.40;;;13.93;;
49217;SDS011;35045;51.194;7.268;2023-11-21T00:55:43;19.42;;;13.18;;
49217;SDS011;35045;51.194;7.268;2023-11-21T00:58:09;20.27;;;13.13;;
49217;SDS011;35045;51.194;7.268;2023-11-21T01:00:36;17.73;;;11.48;;
49217;SDS011;35045;51.194;7.268;2023-11-21T01:03:05;16.75;;;9.88;;
49217;SDS011;35045;51.194;7.268;2023-11-21T01:05:33;17.55;;;10.35;;
49217;SDS011;35045;51.194;7.268;2023-11-21T01:08:00;15.50;;;9.98;;
49217;SDS011;35045;51.194;7.268;2023-11-21T01:10:26;18.55;;;10.30;;
49217;SDS011;35045;51.194;7.268;2023-11-21T01:12:52;17.40;;;10.85;;
49217;SDS011;35045;51.194;7.268;2023-11-21T01:15:18;14.73;;;9.90;;
49217;SDS011;35045;51.194;7.268;2023-11-21T01:17:45;14.20;;;9.02;;
49217;SDS011;35045;51.194;7.268;2023-11-21T01:20:11;17.15;;;8.63;;
49217;SDS011;35045;51.194;7.268;2023-11-21T01:22:38;15.70;;;8.60;;
49217;SDS011;35045;51.194;7.268;2023-11-21T01:25:05;15.73;;;9.65;;
49217;SDS011;35045;51.194;7.268;2023-11-21T01:27:34;16.58;;;9.68;;
49217;SDS011;35045;51.194;7.268;2023-11-21T01:30:01;16.02;;;9.20;;
49217;SDS011;35045;51.194;7.268;2023-11-21T01:32:28;17.20;;;9.77;;
49217;SDS011;35045;51.194;7.268;2023-11-21T01:34:54;14.63;;;9.48;;
49217;SDS011;35045;51.194;7.268;2023-11-21T01:37:21;16.55;;;10.25;;
49217;SDS011;35045;51.194;7.268;2023-11-21T01:39:47;17.42;;;11.00;;
49217;SDS011;35045;51.194;7.268;2023-11-21T01:42:14;17.35;;;10.27;;
49217;SDS011;35045;51.194;7.268;2023-11-21T01:44:40;16.00;;;9.57;;
49217;SDS011;35045;51.194;7.268;2023-11-21T01:47:06;15.98;;;9.60;;
49217;SDS011;35045;51.194;7.268;2023-11-21T01:49:35;14.52;;;9.05;;
49217;SDS011;35045;51.194;7.268;2023-11-21T01:52:01;18.23;;;9.52;;
49217;SDS011;35045;51.194;7.268;2023-11-21T01:54:30;15.88;;;8.77;;
49217;SDS011;35045;51.194;7.268;2023-11-21T01:56:59;14.85;;;8.82;;
49217;SDS011;35045;51.194;7.268;2023-11-21T01:59:34;14.32;;;9.18;;
49217;SDS011;35045;51.194;7.268;2023-11-21T02:02:04;17.02;;;10.48;;
49217;SDS011;35045;51.194;7.268;2023-11-21T02:04:32;18.45;;;10.63;;
49217;SDS011;35045;51.194;7.268;2023-11-21T02:06:59;17.98;;;11.63;;
49217;SDS011;35045;51.194;7.268;2023-11-21T02:09:26;17.60;;;9.60;;
49217;SDS011;35045;51.194;7.268;2023-11-21T02:11:53;19.67;;;11.60;;
49217;SDS011;35045;51.194;7.268;2023-11-21T02:14:21;19.45;;;10.98;;
49217;SDS011;35045;51.194;7.268;2023-11-21T02:16:48;17.73;;;10.55;;
49217;SDS011;35045;51.194;7.268;2023-11-21T02:19:18;16.38;;;10.20;;
49217;SDS011;35045;51.194;7.268;2023-11-21T02:21:59;19.73;;;10.93;;
49217;SDS011;35045;51.194;7.268;2023-11-21T02:24:28;18.92;;;10.63;;
49217;SDS011;35045;51.194;7.268;2023-11-21T02:26:55;16.95;;;10.60;;
49217;SDS011;35045;51.194;7.268;2023-11-21T02:29:22;22.05;;;11.68;;
49217;SDS011;35045;51.194;7.268;2023-11-21T02:31:53;21.92;;;12.50;;
49217;SDS011;35045;51.194;7.268;2023-11-21T02:34:21;19.60;;;12.90;;
49217;SDS011;35045;51.194;7.268;2023-11-21T02:36:48;19.83;;;12.35;;
49217;SDS011;35045;51.194;7.268;2023-11-21T02:39:17;23.48;;;13.73;;
49217;SDS011;35045;51.194;7.268;2023-11-21T02:41:44;16.13;;;10.77;;
49217;SDS011;35045;51.194;7.268;2023-11-21T02:44:10;16.15;;;10.10;;
49217;SDS011;35045;51.194;7.268;2023-11-21T02:46:36;16.90;;;9.80;;
49217;SDS011;35045;51.194;7.268;2023-11-21T02:49:03;15.05;;;9.98;;
49217;SDS011;35045;51.194;7.268;2023-11-21T02:51:32;20.67;;;12.20;;
49217;SDS011;35045;51.194;7.268;2023-11-21T02:53:59;19.75;;;11.57;;
49217;SDS011;35045;51.194;7.268;2023-11-21T02:56:28;16.52;;;11.40;;
49217;SDS011;35045;51.194;7.268;2023-11-21T02:58:55;21.90;;;13.10;;
49217;SDS011;35045;51.194;7.268;2023-11-21T03:01:22;16.88;;;11.13;;
49217;SDS011;35045;51.194;7.268;2023-11-21T03:03:51;25.30;;;13.82;;
49217;SDS011;35045;51.194;7.268;2023-11-21T03:06:18;23.58;;;13.57;;
49217;SDS011;35045;51.194;7.268;2023-11-21T03:08:45;18.08;;;11.40;;
49217;SDS011;35045;51.194;7.268;2023-11-21T03:11:12;16.35;;;10.50;;
49217;SDS011;35045;51.194;7.268;2023-11-21T03:13:39;18.92;;;11.02;;
49217;SDS011;35045;51.194;7.268;2023-11-21T03:16:09;18.17;;;11.05;;
49217;SDS011;35045;51.194;7.268;2023-11-21T03:18:36;28.13;;;15.52;;
49217;SDS011;35045;51.194;7.268;2023-11-21T03:21:04;20.02;;;11.70;;
49217;SDS011;35045;51.194;7.268;2023-11-21T03:23:31;18.90;;;11.55;;
49217;SDS011;35045;51.194;7.268;2023-11-21T03:25:57;21.08;;;13.18;;
49217;SDS011;35045;51.194;7.268;2023-11-21T03:28:25;25.17;;;14.38;;
49217;SDS011;35045;51.194;7.268;2023-11-21T03:30:53;28.23;;;16.58;;
49217;SDS011;35045;51.194;7.268;2023-11-21T03:33:19;33.58;;;19.52;;
49217;SDS011;35045;51.194;7.268;2023-11-21T03:35:46;32.42;;;17.58;;
49217;SDS011;35045;51.194;7.268;2023-11-21T03:38:12;31.50;;;18.73;;
49217;SDS011;35045;51.194;7.268;2023-11-21T03:40:38;33.53;;;17.75;;
49217;SDS011;35045;51.194;7.268;2023-11-21T03:43:05;34.03;;;20.83;;
49217;SDS011;35045;51.194;7.268;2023-11-21T03:45:32;38.47;;;19.55;;
49217;SDS011;35045;51.194;7.268;2023-11-21T03:47:59;32.92;;;19.75;;
49217;SDS011;35045;51.194;7.268;2023-11-21T03:50:30;31.60;;;18.50;;
49217;SDS011;35045;51.194;7.268;2023-11-21T03:52:56;34.17;;;20.52;;
49217;SDS011;35045;51.194;7.268;2023-11-21T03:55:23;32.92;;;19.08;;
49217;SDS011;35045;51.194;7.268;2023-11-21T03:57:50;33.08;;;18.25;;
49217;SDS011;35045;51.194;7.268;2023-11-21T04:00:17;34.40;;;20.00;;
49217;SDS011;35045;51.194;7.268;2023-11-21T04:02:45;32.92;;;19.33;;
49217;SDS011;35045;51.194;7.268;2023-11-21T04:05:12;33.55;;;19.55;;
49217;SDS011;35045;51.194;7.268;2023-11-21T04:07:38;34.20;;;18.77;;
49217;SDS011;35045;51.194;7.268;2023-11-21T04:10:05;32.05;;;18.30;;
49217;SDS011;35045;51.194;7.268;2023-11-21T04:12:34;31.15;;;16.95;;
49217;SDS011;35045;51.194;7.268;2023-11-21T04:15:01;32.47;;;17.35;;
49217;SDS011;35045;51.194;7.268;2023-11-21T04:17:28;34.00;;;16.92;;
49217;SDS011;35045;51.194;7.268;2023-11-21T04:19:54;30.50;;;16.00;;
49217;SDS011;35045;51.194;7.268;2023-11-21T04:22:21;28.25;;;15.48;;
49217;SDS011;35045;51.194;7.268;2023-11-21T04:24:47;28.30;;;16.42;;
49217;SDS011;35045;51.194;7.268;2023-11-21T04:27:14;31.90;;;18.05;;
49217;SDS011;35045;51.194;7.268;2023-11-21T04:29:43;29.65;;;15.68;;
49217;SDS011;35045;51.194;7.268;2023-11-21T04:32:10;32.10;;;17.73;;
49217;SDS011;35045;51.194;7.268;2023-11-21T04:34:36;31.95;;;18.50;;
49217;SDS011;35045;51.194;7.268;2023-11-21T04:37:03;31.27;;;16.63;;
49217;SDS011;35045;51.194;7.268;2023-11-21T04:39:31;28.73;;;16.00;;
49217;SDS011;35045;51.194;7.268;2023-11-21T04:41:58;35.50;;;16.83;;
49217;SDS011;35045;51.194;7.268;2023-11-21T04:44:24;30.23;;;17.02;;
49217;SDS011;35045;51.194;7.268;2023-11-21T04:46:50;33.08;;;16.50;;
49217;SDS011;35045;51.194;7.268;2023-11-21T04:49:16;30.35;;;17.70;;
49217;SDS011;35045;51.194;7.268;2023-11-21T04:51:42;29.90;;;17.20;;
49217;SDS011;35045;51.194;7.268;2023-11-21T04:54:09;31.98;;;18.13;;
49217;SDS011;35045;51.194;7.268;2023-11-21T04:56:36;30.52;;;16.08;;
49217;SDS011;35045;51.194;7.268;2023-11-21T04:59:02;32.47;;;17.40;;
49217;SDS011;35045;51.194;7.268;2023-11-21T05:01:28;32.22;;;17.02;;
49217;SDS011;35045;51.194;7.268;2023-11-21T05:03:55;31.73;;;16.80;;
49217;SDS011;35045;51.194;7.268;2023-11-21T05:06:22;28.73;;;15.68;;
49217;SDS011;35045;51.194;7.268;2023-11-21T05:08:49;30.48;;;16.35;;
49217;SDS011;35045;51.194;7.268;2023-11-21T05:11:25;28.27;;;16.90;;
49217;SDS011;35045;51.194;7.268;2023-11-21T05:13:52;27.92;;;15.52;;
49217;SDS011;35045;51.194;7.268;2023-11-21T05:16:21;28.27;;;15.90;;
49217;SDS011;35045;51.194;7.268;2023-11-21T05:18:48;30.25;;;17.15;;
49217;SDS011;35045;51.194;7.268;2023-11-21T05:21:16;27.05;;;16.25;;
49217;SDS011;35045;51.194;7.268;2023-11-21T05:23:42;26.50;;;14.68;;
49217;SDS011;35045;51.194;7.268;2023-11-21T05:26:08;24.40;;;15.07;;
49217;SDS011;35045;51.194;7.268;2023-11-21T05:28:34;25.85;;;15.38;;
49217;SDS011;35045;51.194;7.268;2023-11-21T05:31:00;23.20;;;15.02;;
49217;SDS011;35045;51.194;7.268;2023-11-21T05:33:28;26.63;;;15.15;;
49217;SDS011;35045;51.194;7.268;2023-11-21T05:35:56;23.17;;;13.68;;
49217;SDS011;35045;51.194;7.268;2023-11-21T05:38:22;26.73;;;14.77;;
49217;SDS011;35045;51.194;7.268;2023-11-21T05:40:48;33.40;;;15.48;;
49217;SDS011;35045;51.194;7.268;2023-11-21T05:43:14;36.08;;;16.38;;
49217;SDS011;35045;51.194;7.268;2023-11-21T05:45:41;38.25;;;15.45;;
49217;SDS011;35045;51.194;7.268;2023-11-21T05:48:07;50.25;;;16.77;;
49217;SDS011;35045;51.194;7.268;2023-11-21T05:50:33;25.13;;;14.23;;
49217;SDS011;35045;51.194;7.268;2023-11-21T05:52:59;26.55;;;14.27;;
49217;SDS011;35045;51.194;7.268;2023-11-21T05:55:26;25.15;;;13.48;;
49217;SDS011;35045;51.194;7.268;2023-11-21T05:57:52;25.60;;;14.60;;
49217;SDS011;35045;51.194;7.268;2023-11-21T06:00:19;25.65;;;14.38;;
49217;SDS011;35045;51.194;7.268;2023-11-21T06:02:47;26.52;;;14.50;;
49217;SDS011;35045;51.194;7.268;2023-11-21T06:05:17;27.65;;;15.23;;
49217;SDS011;35045;51.194;7.268;2023-11-21T06:07:44;33.78;;;15.02;;
49217;SDS011;35045;51.194;7.268;2023-11-21T06:10:11;58.65;;;17.80;;
49217;SDS011;35045;51.194;7.268;2023-11-21T06:12:40;34.90;;;16.52;;
49217;SDS011;35045;51.194;7.268;2023-11-21T06:15:08;39.40;;;15.45;;
49217;SDS011;35045;51.194;7.268;2023-11-21T06:17:39;48.55;;;15.98;;
49217;SDS011;35045;51.194;7.268;2023-11-21T06:20:06;42.85;;;15.70;;
49217;SDS011;35045;51.194;7.268;2023-11-21T06:22:40;38.83;;;16.30;;
49217;SDS011;35045;51.194;7.268;2023-11-21T06:25:07;49.15;;;16.15;;
49217;SDS011;35045;51.194;7.268;2023-11-21T06:27:37;48.22;;;15.70;;
49217;SDS011;35045;51.194;7.268;2023-11-21T06:30:04;40.45;;;17.38;;
49217;SDS011;35045;51.194;7.268;2023-11-21T06:32:32;49.58;;;17.30;;
49217;SDS011;35045;51.194;7.268;2023-11-21T06:34:58;56.58;;;17.40;;
49217;SDS011;35045;51.194;7.268;2023-11-21T06:37:26;39.40;;;17.38;;
49217;SDS011;35045;51.194;7.268;2023-11-21T06:39:53;43.75;;;17.08;;
49217;SDS011;35045;51.194;7.268;2023-11-21T06:42:20;32.53;;;16.48;;
49217;SDS011;35045;51.194;7.268;2023-11-21T06:44:46;61.95;;;16.88;;
49217;SDS011;35045;51.194;7.268;2023-11-21T06:47:14;38.78;;;17.67;;
49217;SDS011;35045;51.194;7.268;2023-11-21T06:49:41;80.05;;;20.35;;
49217;SDS011;35045;51.194;7.268;2023-11-21T06:52:08;42.63;;;16.52;;
49217;SDS011;35045;51.194;7.268;2023-11-21T06:54:34;32.15;;;16.38;;
49217;SDS011;35045;51.194;7.268;2023-11-21T06:57:02;45.30;;;16.45;;
49217;SDS011;35045;51.194;7.268;2023-11-21T06:59:29;22.90;;;14.32;;
49217;SDS011;35045;51.194;7.268;2023-11-21T07:01:55;23.48;;;13.48;;
49217;SDS011;35045;51.194;7.268;2023-11-21T07:04:21;25.27;;;14.18;;
49217;SDS011;35045;51.194;7.268;2023-11-21T07:06:47;22.02;;;13.40;;
49217;SDS011;35045;51.194;7.268;2023-11-21T07:09:14;26.67;;;14.98;;
49217;SDS011;35045;51.194;7.268;2023-11-21T07:11:41;25.25;;;14.07;;
49217;SDS011;35045;51.194;7.268;2023-11-21T07:14:08;21.58;;;13.25;;
49217;SDS011;35045;51.194;7.268;2023-11-21T07:16:35;24.67;;;14.45;;
49217;SDS011;35045;51.194;7.268;2023-11-21T07:19:04;23.75;;;13.30;;
49217;SDS011;35045;51.194;7.268;2023-11-21T07:21:34;21.92;;;13.23;;
49217;SDS011;35045;51.194;7.268;2023-11-21T07:24:01;22.38;;;13.35;;
49217;SDS011;35045;51.194;7.268;2023-11-21T07:26:28;23.50;;;13.82;;
49217;SDS011;35045;51.194;7.268;2023-11-21T07:28:55;26.15;;;14.70;;
49217;SDS011;35045;51.194;7.268;2023-11-21T07:31:22;29.50;;;15.07;;
49217;SDS011;35045;51.194;7.268;2023-11-21T07:33:50;23.20;;;13.98;;
49217;SDS011;35045;51.194;7.268;2023-11-21T07:36:17;26.90;;;14.88;;
49217;SDS011;35045;51.194;7.268;2023-11-21T07:38:44;26.75;;;14.85;;
49217;SDS011;35045;51.194;7.268;2023-11-21T07:41:10;25.48;;;14.13;;
49217;SDS011;35045;51.194;7.268;2023-11-21T07:43:41;25.77;;;14.48;;
49217;SDS011;35045;51.194;7.268;2023-11-21T07:46:07;23.60;;;14.32;;
49217;SDS011;35045;51.194;7.268;2023-11-21T07:48:34;26.65;;;14.35;;
49217;SDS011;35045;51.194;7.268;2023-11-21T07:51:01;25.88;;;14.27;;
49217;SDS011;35045;51.194;7.268;2023-11-21T07:53:32;22.90;;;14.60;;
49217;SDS011;35045;51.194;7.268;2023-11-21T07:56:00;20.70;;;12.25;;
49217;SDS011;35045;51.194;7.268;2023-11-21T07:58:32;22.77;;;11.88;;
49217;SDS011;35045;51.194;7.268;2023-11-21T08:01:01;25.65;;;13.95;;
49217;SDS011;35045;51.194;7.268;2023-11-21T08:03:30;21.98;;;13.18;;
49217;SDS011;35045;51.194;7.268;2023-11-21T08:05:57;23.30;;;12.77;;
49217;SDS011;35045;51.194;7.268;2023-11-21T08:08:24;25.35;;;14.23;;
49217;SDS011;35045;51.194;7.268;2023-11-21T08:10:51;21.70;;;13.52;;
49217;SDS011;35045;51.194;7.268;2023-11-21T08:13:22;22.90;;;13.38;;
49217;SDS011;35045;51.194;7.268;2023-11-21T08:15:55;21.58;;;13.15;;
49217;SDS011;35045;51.194;7.268;2023-11-21T08:18:24;24.73;;;13.57;;
49217;SDS011;35045;51.194;7.268;2023-11-21T08:20:50;25.27;;;14.63;;
49217;SDS011;35045;51.194;7.268;2023-11-21T08:23:16;25.88;;;13.80;;
49217;SDS011;35045;51.194;7.268;2023-11-21T08:25:43;23.95;;;13.45;;
49217;SDS011;35045;51.194;7.268;2023-11-21T08:28:10;27.20;;;14.65;;
49217;SDS011;35045;51.194;7.268;2023-11-21T08:30:37;23.67;;;13.70;;
49217;SDS011;35045;51.194;7.268;2023-11-21T08:33:03;25.05;;;14.25;;
49217;SDS011;35045;51.194;7.268;2023-11-21T08:35:31;26.05;;;14.23;;
49217;SDS011;35045;51.194;7.268;2023-11-21T08:37:57;27.67;;;15.30;;
49217;SDS011;35045;51.194;7.268;2023-11-21T08:40:23;33.65;;;16.67;;
49217;SDS011;35045;51.194;7.268;2023-11-21T08:42:51;32.25;;;17.10;;
49217;SDS011;35045;51.194;7.268;2023-11-21T08:45:18;35.33;;;17.60;;
49217;SDS011;35045;51.194;7.268;2023-11-21T08:47:45;35.42;;;18.20;;
49217;SDS011;35045;51.194;7.268;2023-11-21T08:50:11;32.95;;;17.00;;
49217;SDS011;35045;51.194;7.268;2023-11-21T08:52:39;38.03;;;19.58;;
49217;SDS011;35045;51.194;7.268;2023-11-21T08:55:06;34.58;;;19.08;;
49217;SDS011;35045;51.194;7.268;2023-11-21T08:57:36;38.97;;;17.70;;
49217;SDS011;35045;51.194;7.268;2023-11-21T09:00:03;36.80;;;17.35;;
49217;SDS011;35045;51.194;7.268;2023-11-21T09:02:37;35.20;;;17.60;;
49217;SDS011;35045;51.194;7.268;2023-11-21T09:05:05;34.10;;;18.83;;
49217;SDS011;35045;51.194;7.268;2023-11-21T09:07:32;33.88;;;18.30;;
49217;SDS011;35045;51.194;7.268;2023-11-21T09:09:58;34.00;;;18.63;;
49217;SDS011;35045;51.194;7.268;2023-11-21T09:12:24;32.65;;;16.77;;
49217;SDS011;35045;51.194;7.268;2023-11-21T09:14:50;41.22;;;19.08;;
49217;SDS011;35045;51.194;7.268;2023-11-21T09:17:17;35.75;;;19.67;;
49217;SDS011;35045;51.194;7.268;2023-11-21T09:19:44;35.65;;;17.63;;
49217;SDS011;35045;51.194;7.268;2023-11-21T09:22:17;35.55;;;18.35;;
49217;SDS011;35045;51.194;7.268;2023-11-21T09:24:43;35.67;;;18.55;;
49217;SDS011;35045;51.194;7.268;2023-11-21T09:27:10;44.40;;;20.33;;
49217;SDS011;35045;51.194;7.268;2023-11-21T09:29:36;37.13;;;19.75;;
49217;SDS011;35045;51.194;7.268;2023-11-21T09:32:06;45.20;;;20.35;;
49217;SDS011;35045;51.194;7.268;2023-11-21T09:34:34;47.65;;;22.13;;
49217;SDS011;35045;51.194;7.268;2023-11-21T09:37:04;47.08;;;20.98;;
49217;SDS011;35045;51.194;7.268;2023-11-21T09:39:32;46.47;;;22.33;;
49217;SDS011;35045;51.194;7.268;2023-11-21T09:44:41;48.67;;;22.08;;
49217;SDS011;35045;51.194;7.268;2023-11-21T09:47:30;52.17;;;23.48;;
49217;SDS011;35045;51.194;7.268;2023-11-21T09:49:56;53.25;;;23.35;;
49217;SDS011;35045;51.194;7.268;2023-11-21T09:52:27;50.20;;;22.08;;
49217;SDS011;35045;51.194;7.268;2023-11-21T09:54:54;44.63;;;22.40;;
49217;SDS011;35045;51.194;7.268;2023-11-21T09:57:24;47.08;;;21.23;;
49217;SDS011;35045;51.194;7.268;2023-11-21T09:59:51;43.58;;;20.42;;
49217;SDS011;35045;51.194;7.268;2023-11-21T10:02:25;42.63;;;20.48;;
49217;SDS011;35045;51.194;7.268;2023-11-21T10:04:55;44.28;;;21.08;;
49217;SDS011;35045;51.194;7.268;2023-11-21T10:07:22;42.00;;;19.42;;
49217;SDS011;35045;51.194;7.268;2023-11-21T10:09:48;46.45;;;22.30;;
49217;SDS011;35045;51.194;7.268;2023-11-21T10:12:16;44.03;;;21.75;;
49217;SDS011;35045;51.194;7.268;2023-11-21T10:14:44;50.97;;;20.80;;
49217;SDS011;35045;51.194;7.268;2023-11-21T10:17:14;39.55;;;19.00;;
49217;SDS011;35045;51.194;7.268;2023-11-21T10:19:46;43.10;;;20.60;;
49217;SDS011;35045;51.194;7.268;2023-11-21T10:22:16;41.15;;;20.40;;
49217;SDS011;35045;51.194;7.268;2023-11-21T10:24:43;41.78;;;21.35;;
49217;SDS011;35045;51.194;7.268;2023-11-21T10:27:09;38.85;;;20.00;;
49217;SDS011;35045;51.194;7.268;2023-11-21T10:29:36;42.20;;;20.50;;
49217;SDS011;35045;51.194;7.268;2023-11-21T10:32:02;41.15;;;19.55;;
49217;SDS011;35045;51.194;7.268;2023-11-21T10:34:29;37.60;;;19.00;;
49217;SDS011;35045;51.194;7.268;2023-11-21T10:36:55;37.15;;;19.30;;
49217;SDS011;35045;51.194;7.268;2023-11-21T10:39:24;33.65;;;18.23;;
49217;SDS011;35045;51.194;7.268;2023-11-21T10:41:54;34.60;;;17.20;;
49217;SDS011;35045;51.194;7.268;2023-11-21T10:44:21;39.78;;;18.25;;
49217;SDS011;35045;51.194;7.268;2023-11-21T10:46:52;34.03;;;17.55;;
49217;SDS011;35045;51.194;7.268;2023-11-21T10:49:24;34.03;;;15.32;;
49217;SDS011;35045;51.194;7.268;2023-11-21T10:51:51;25.20;;;15.15;;
49217;SDS011;35045;51.194;7.268;2023-11-21T10:54:19;27.95;;;14.60;;
49217;SDS011;35045;51.194;7.268;2023-11-21T10:56:47;24.08;;;13.43;;
49217;SDS011;35045;51.194;7.268;2023-11-21T10:59:17;28.58;;;15.25;;
49217;SDS011;35045;51.194;7.268;2023-11-21T11:01:46;25.25;;;12.88;;
49217;SDS011;35045;51.194;7.268;2023-11-21T11:04:18;24.92;;;11.25;;
49217;SDS011;35045;51.194;7.268;2023-11-21T11:06:52;22.55;;;10.25;;
49217;SDS011;35045;51.194;7.268;2023-11-21T11:09:22;24.73;;;10.00;;
49217;SDS011;35045;51.194;7.268;2023-11-21T11:11:48;22.58;;;11.93;;
49217;SDS011;35045;51.194;7.268;2023-11-21T11:14:16;24.95;;;11.73;;
49217;SDS011;35045;51.194;7.268;2023-11-21T11:16:45;26.00;;;12.43;;
49217;SDS011;35045;51.194;7.268;2023-11-21T11:19:11;25.30;;;12.43;;
49217;SDS011;35045;51.194;7.268;2023-11-21T11:38:33;26.35;;;10.43;;
49217;SDS011;35045;51.194;7.268;2023-11-21T11:41:02;20.65;;;10.02;;
49217;SDS011;35045;51.194;7.268;2023-11-21T11:43:30;18.75;;;9.25;;
49217;SDS011;35045;51.194;7.268;2023-11-21T11:46:08;21.17;;;10.10;;
49217;SDS011;35045;51.194;7.268;2023-11-21T11:48:36;22.65;;;8.98;;
49217;SDS011;35045;51.194;7.268;2023-11-21T11:51:05;21.05;;;8.68;;
49217;SDS011;35045;51.194;7.268;2023-11-21T11:53:35;22.52;;;9.50;;
49217;SDS011;35045;51.194;7.268;2023-11-21T11:59:10;21.67;;;9.77;;
49217;SDS011;35045;51.194;7.268;2023-11-21T12:01:36;21.30;;;10.27;;
49217;SDS011;35045;51.194;7.268;2023-11-21T12:06:42;29.02;;;8.80;;
49217;SDS011;35045;51.194;7.268;2023-11-21T12:09:12;21.10;;;9.13;;
49217;SDS011;35045;51.194;7.268;2023-11-21T12:11:44;20.27;;;8.93;;
49217;SDS011;35045;51.194;7.268;2023-11-21T12:14:12;21.67;;;8.43;;
49217;SDS011;35045;51.194;7.268;2023-11-21T12:16:39;22.48;;;8.13;;
49217;SDS011;35045;51.194;7.268;2023-11-21T12:19:06;16.17;;;7.88;;
49217;SDS011;35045;51.194;7.268;2023-11-21T12:21:32;22.02;;;7.15;;
49217;SDS011;35045;51.194;7.268;2023-11-21T12:23:59;20.42;;;7.95;;
49217;SDS011;35045;51.194;7.268;2023-11-21T12:26:25;21.48;;;8.15;;
49217;SDS011;35045;51.194;7.268;2023-11-21T12:28:52;20.35;;;8.20;;
49217;SDS011;35045;51.194;7.268;2023-11-21T12:31:22;17.55;;;7.45;;
49217;SDS011;35045;51.194;7.268;2023-11-21T12:33:49;17.20;;;6.93;;
49217;SDS011;35045;51.194;7.268;2023-11-21T12:36:16;20.73;;;7.85;;
49217;SDS011;35045;51.194;7.268;2023-11-21T12:38:42;20.45;;;8.85;;
49217;SDS011;35045;51.194;7.268;2023-11-21T12:41:09;18.52;;;8.32;;
49217;SDS011;35045;51.194;7.268;2023-11-21T12:43:36;20.40;;;10.40;;
49217;SDS011;35045;51.194;7.268;2023-11-21T12:46:04;22.27;;;10.32;;
49217;SDS011;35045;51.194;7.268;2023-11-21T12:48:32;21.38;;;10.20;;
49217;SDS011;35045;51.194;7.268;2023-11-21T12:50:58;26.10;;;11.10;;
49217;SDS011;35045;51.194;7.268;2023-11-21T12:53:26;21.80;;;10.13;;
49217;SDS011;35045;51.194;7.268;2023-11-21T12:55:52;24.40;;;11.25;;
49217;SDS011;35045;51.194;7.268;2023-11-21T12:58:23;24.92;;;11.75;;
49217;SDS011;35045;51.194;7.268;2023-11-21T13:00:51;27.25;;;12.38;;
49217;SDS011;35045;51.194;7.268;2023-11-21T13:03:19;26.85;;;11.88;;
49217;SDS011;35045;51.194;7.268;2023-11-21T13:05:51;28.25;;;11.40;;
49217;SDS011;35045;51.194;7.268;2023-11-21T13:08:21;24.08;;;12.30;;
49217;SDS011;35045;51.194;7.268;2023-11-21T13:10:49;24.58;;;11.02;;
49217;SDS011;35045;51.194;7.268;2023-11-21T13:13:17;26.88;;;12.32;;
49217;SDS011;35045;51.194;7.268;2023-11-21T13:15:51;24.15;;;12.52;;
49217;SDS011;35045;51.194;7.268;2023-11-21T13:18:27;26.60;;;12.35;;
49217;SDS011;35045;51.194;7.268;2023-11-21T13:20:54;30.48;;;14.82;;
49217;SDS011;35045;51.194;7.268;2023-11-21T13:23:21;29.02;;;15.00;;
49217;SDS011;35045;51.194;7.268;2023-11-21T13:25:48;30.15;;;13.45;;
49217;SDS011;35045;51.194;7.268;2023-11-21T13:28:18;26.90;;;13.63;;
49217;SDS011;35045;51.194;7.268;2023-11-21T13:30:47;28.48;;;14.02;;
49217;SDS011;35045;51.194;7.268;2023-11-21T13:33:14;31.20;;;14.40;;
49217;SDS011;35045;51.194;7.268;2023-11-21T13:35:47;31.63;;;15.38;;
49217;SDS011;35045;51.194;7.268;2023-11-21T13:38:16;29.38;;;14.10;;
49217;SDS011;35045;51.194;7.268;2023-11-21T13:40:50;35.40;;;14.50;;
49217;SDS011;35045;51.194;7.268;2023-11-21T13:43:24;30.33;;;15.40;;
49217;SDS011;35045;51.194;7.268;2023-11-21T13:45:52;33.08;;;14.15;;
49217;SDS011;35045;51.194;7.268;2023-11-21T13:48:36;27.27;;;13.35;;
49217;SDS011;35045;51.194;7.268;2023-11-21T13:51:14;25.35;;;13.32;;
49217;SDS011;35045;51.194;7.268;2023-11-21T13:53:44;29.35;;;13.40;;
49217;SDS011;35045;51.194;7.268;2023-11-21T13:56:13;32.97;;;15.68;;
49217;SDS011;35045;51.194;7.268;2023-11-21T13:58:45;29.20;;;16.77;;
49217;SDS011;35045;51.194;7.268;2023-11-21T14:01:21;29.60;;;16.02;;
49217;SDS011;35045;51.194;7.268;2023-11-21T14:04:00;21.42;;;12.57;;
49217;SDS011;35045;51.194;7.268;2023-11-21T14:06:38;25.98;;;12.85;;
49217;SDS011;35045;51.194;7.268;2023-11-21T14:09:17;18.52;;;9.82;;
49217;SDS011;35045;51.194;7.268;2023-11-21T14:12:01;17.38;;;9.98;;
49217;SDS011;35045;51.194;7.268;2023-11-21T14:14:32;21.70;;;10.30;;
49217;SDS011;35045;51.194;7.268;2023-11-21T14:16:58;17.90;;;9.50;;
49217;SDS011;35045;51.194;7.268;2023-11-21T14:19:24;21.38;;;10.38;;
49217;SDS011;35045;51.194;7.268;2023-11-21T14:21:57;21.33;;;11.85;;
49217;SDS011;35045;51.194;7.268;2023-11-21T14:24:23;33.58;;;14.02;;
49217;SDS011;35045;51.194;7.268;2023-11-21T14:26:51;22.13;;;11.90;;
49217;SDS011;35045;51.194;7.268;2023-11-21T14:29:18;49.03;;;14.25;;
49217;SDS011;35045;51.194;7.268;2023-11-21T14:31:49;28.05;;;14.05;;
49217;SDS011;35045;51.194;7.268;2023-11-21T14:34:22;42.53;;;17.00;;
49217;SDS011;35045;51.194;7.268;2023-11-21T14:36:49;24.33;;;14.98;;
49217;SDS011;35045;51.194;7.268;2023-11-21T14:39:16;81.72;;;21.95;;
49217;SDS011;35045;51.194;7.268;2023-11-21T14:41:55;43.00;;;19.63;;
49217;SDS011;35045;51.194;7.268;2023-11-21T14:44:23;155.63;;;28.25;;
49217;SDS011;35045;51.194;7.268;2023-11-21T14:46:52;111.55;;;27.23;;
49217;SDS011;35045;51.194;7.268;2023-11-21T14:49:21;270.98;;;32.97;;
49217;SDS011;35045;51.194;7.268;2023-11-21T14:51:51;229.80;;;29.17;;
49217;SDS011;35045;51.194;7.268;2023-11-21T14:54:27;171.85;;;26.42;;